Time;durP1;ratioP1;P1;durP2;ratioP2;P2;SDS_P1;SDS_P2;PMS_P1;PMS_P2;Temp;Humidity;BMP_temperature;BMP_pressure;BME280_temperature;BME280_humidity;BME280_pressure;Samples;Min_cycle;Max_cycle;Signal;HPM_P1;HPM_P2
2021/09/24 00:00:25;;;;;;;4.63;2.50;;;13.00;99.90;;;;;;5053943;28;20021;-84
2021/09/24 00:02:51;;;;;;;5.30;2.80;;;13.00;99.90;;;;;;5036656;28;20025;-84
2021/09/24 00:05:17;;;;;;;5.90;2.88;;;13.10;99.90;;;;;;5040192;28;20339;-84
2021/09/24 00:07:43;;;;;;;8.02;3.05;;;12.90;99.90;;;;;;5034388;28;20101;-85
2021/09/24 00:10:10;;;;;;;7.28;3.38;;;13.00;99.90;;;;;;5015893;28;20564;-85
2021/09/24 00:12:37;;;;;;;5.78;3.10;;;13.00;99.90;;;;;;5034552;28;20485;-84
2021/09/24 00:15:05;;;;;;;7.10;3.10;;;12.90;99.90;;;;;;5039589;28;20024;-84
2021/09/24 00:17:31;;;;;;;8.60;3.95;;;13.00;99.90;;;;;;5054349;28;20057;-85
2021/09/24 00:19:56;;;;;;;5.72;2.75;;;13.00;99.90;;;;;;5051996;28;20389;-84
2021/09/24 00:22:22;;;;;;;5.35;3.28;;;13.00;99.90;;;;;;5038883;28;20515;-85
2021/09/24 00:24:48;;;;;;;6.18;2.80;;;13.00;99.90;;;;;;5034183;28;20096;-85
2021/09/24 00:27:14;;;;;;;4.85;2.80;;;12.80;99.90;;;;;;5016758;28;20428;-84
2021/09/24 00:29:39;;;;;;;7.00;3.15;;;12.90;99.90;;;;;;5016644;28;20032;-85
2021/09/24 00:32:05;;;;;;;7.93;3.33;;;12.80;99.90;;;;;;5016501;28;20033;-84
2021/09/24 00:34:31;;;;;;;5.88;3.25;;;12.80;99.90;;;;;;5017394;28;20029;-84
2021/09/24 00:36:57;;;;;;;4.85;3.25;;;12.80;99.90;;;;;;5034210;28;20036;-84
2021/09/24 00:39:23;;;;;;;5.10;3.10;;;12.70;99.90;;;;;;5034072;28;20049;-84
2021/09/24 00:41:48;;;;;;;5.03;2.97;;;12.70;99.90;;;;;;5015580;28;20025;-84
2021/09/24 00:44:14;;;;;;;7.45;3.05;;;12.70;99.90;;;;;;5048232;28;20063;-85
2021/09/24 00:46:40;;;;;;;5.10;2.70;;;12.80;99.90;;;;;;5060455;28;20043;-84
2021/09/24 00:49:05;;;;;;;5.30;3.00;;;12.70;99.90;;;;;;5050120;28;20106;-84
2021/09/24 00:51:31;;;;;;;6.55;3.17;;;12.70;99.90;;;;;;5053284;28;20049;-84
2021/09/24 00:53:57;;;;;;;4.63;2.50;;;12.70;99.90;;;;;;5049479;28;20037;-84
2021/09/24 00:56:23;;;;;;;5.95;3.45;;;12.60;99.90;;;;;;5036158;28;20029;-84
2021/09/24 00:58:49;;;;;;;6.55;3.45;;;12.60;99.90;;;;;;5053672;28;20021;-84
2021/09/24 01:01:15;;;;;;;5.95;3.08;;;12.60;99.90;;;;;;5051530;28;20490;-85
2021/09/24 01:03:41;;;;;;;7.00;3.40;;;12.60;99.90;;;;;;5040880;28;20044;-84
2021/09/24 01:06:06;;;;;;;6.82;2.72;;;12.60;99.90;;;;;;5033276;28;20029;-84
2021/09/24 01:08:32;;;;;;;6.30;3.50;;;12.60;99.90;;;;;;5033659;28;20047;-84
2021/09/24 01:10:59;;;;;;;7.10;3.25;;;12.60;99.90;;;;;;5015855;28;20390;-84
2021/09/24 01:13:25;;;;;;;7.20;3.45;;;12.60;99.90;;;;;;5032118;28;20037;-85
2021/09/24 01:15:50;;;;;;;5.25;3.20;;;12.60;99.90;;;;;;5033690;28;20739;-84
2021/09/24 01:18:16;;;;;;;7.97;3.80;;;12.60;99.90;;;;;;5016437;28;20033;-84
2021/09/24 01:20:41;;;;;;;5.57;3.28;;;12.60;99.90;;;;;;5015750;28;20083;-84
2021/09/24 01:23:07;;;;;;;8.75;3.20;;;12.50;99.90;;;;;;5015428;28;20084;-84
2021/09/24 01:25:33;;;;;;;5.57;3.15;;;12.50;99.90;;;;;;5032107;28;20025;-84
2021/09/24 01:27:59;;;;;;;6.32;3.58;;;12.50;99.90;;;;;;5033119;28;20116;-84
2021/09/24 01:30:25;;;;;;;8.23;3.20;;;12.50;99.90;;;;;;5046933;28;20031;-85
2021/09/24 01:32:51;;;;;;;6.38;3.42;;;12.50;99.90;;;;;;5051437;28;20025;-84
2021/09/24 01:35:17;;;;;;;5.45;3.22;;;12.50;99.90;;;;;;5051431;28;20367;-84
2021/09/24 01:37:44;;;;;;;5.25;3.20;;;12.50;99.90;;;;;;5043309;28;20041;-84
2021/09/24 01:40:16;;;;;;;7.50;4.22;;;12.50;99.90;;;;;;5032615;28;20052;-84
2021/09/24 01:42:43;;;;;;;5.53;3.40;;;12.50;99.90;;;;;;5032799;28;20026;-84
2021/09/24 01:45:10;;;;;;;6.03;3.70;;;12.40;99.90;;;;;;5053532;28;20494;-85
2021/09/24 01:47:36;;;;;;;4.90;2.95;;;12.50;99.90;;;;;;5015246;28;20064;-84
2021/09/24 01:50:03;;;;;;;6.45;3.78;;;12.40;99.90;;;;;;5032888;28;20033;-84
2021/09/24 01:52:28;;;;;;;5.72;3.30;;;12.40;99.90;;;;;;5013882;28;20041;-84
2021/09/24 01:54:55;;;;;;;6.25;3.80;;;12.40;99.90;;;;;;5037851;23;20017;-81
2021/09/24 01:57:21;;;;;;;6.18;3.80;;;12.40;99.90;;;;;;5060776;28;20029;-82
2021/09/24 01:59:46;;;;;;;6.63;3.53;;;12.30;99.90;;;;;;5063816;28;20029;-82
2021/09/24 02:02:12;;;;;;;6.00;3.60;;;12.30;99.90;;;;;;5080109;28;20446;-81
2021/09/24 02:04:38;;;;;;;6.60;3.53;;;12.30;99.90;;;;;;5079413;28;20025;-81
2021/09/24 02:07:03;;;;;;;5.18;3.20;;;12.20;99.90;;;;;;5063451;28;20088;-81
2021/09/24 02:09:29;;;;;;;7.20;3.92;;;12.30;99.90;;;;;;5052477;28;20479;-79
2021/09/24 02:11:55;;;;;;;5.78;3.47;;;12.20;99.90;;;;;;5039864;28;20557;-82
2021/09/24 02:14:21;;;;;;;7.72;3.47;;;12.20;99.90;;;;;;5076061;28;20048;-83
2021/09/24 02:16:47;;;;;;;6.35;3.33;;;12.20;99.90;;;;;;5064351;28;20039;-81
2021/09/24 02:19:13;;;;;;;6.47;3.40;;;12.20;99.90;;;;;;5067407;28;20065;-82
2021/09/24 02:21:38;;;;;;;8.18;3.65;;;12.10;99.90;;;;;;5062108;28;20014;-83
2021/09/24 02:24:04;;;;;;;5.53;3.25;;;12.10;99.90;;;;;;5049450;28;20026;-80
2021/09/24 02:26:30;;;;;;;5.90;3.05;;;12.10;99.90;;;;;;5049741;28;20025;-81
2021/09/24 02:28:55;;;;;;;5.50;3.13;;;12.10;99.90;;;;;;5065409;28;20047;-80
2021/09/24 02:31:21;;;;;;;6.93;3.72;;;12.10;99.90;;;;;;5064242;28;20033;-83
2021/09/24 02:33:47;;;;;;;6.75;3.80;;;12.10;99.90;;;;;;5050295;28;20128;-81
2021/09/24 02:36:12;;;;;;;8.68;3.40;;;12.10;99.90;;;;;;5048899;28;20413;-81
2021/09/24 02:38:38;;;;;;;5.45;3.40;;;12.00;99.90;;;;;;5055597;28;20021;-81
2021/09/24 02:41:04;;;;;;;6.13;3.47;;;12.00;99.90;;;;;;5065541;28;20025;-81
2021/09/24 02:43:31;;;;;;;6.13;3.70;;;12.10;99.90;;;;;;5051229;28;20112;-81
2021/09/24 02:45:57;;;;;;;8.57;3.63;;;12.00;99.90;;;;;;5069931;28;20151;-83
2021/09/24 02:48:22;;;;;;;6.65;3.97;;;12.00;99.90;;;;;;5070152;28;20037;-82
2021/09/24 02:50:48;;;;;;;5.82;3.80;;;11.90;99.90;;;;;;5067375;28;20017;-80
2021/09/24 02:53:14;;;;;;;6.40;3.53;;;11.90;99.90;;;;;;5066198;28;20045;-83
2021/09/24 02:55:39;;;;;;;10.18;3.88;;;11.90;99.90;;;;;;5049639;28;20045;-81
2021/09/24 02:58:05;;;;;;;6.97;3.20;;;11.80;99.90;;;;;;5049610;28;20018;-81
2021/09/24 03:00:31;;;;;;;6.13;3.70;;;11.90;99.90;;;;;;5048514;28;20079;-82
2021/09/24 03:02:56;;;;;;;7.60;3.75;;;11.90;99.90;;;;;;5050360;28;20047;-81
2021/09/24 03:05:22;;;;;;;6.22;3.90;;;11.90;99.90;;;;;;5045997;28;20045;-82
2021/09/24 03:07:50;;;;;;;6.07;3.83;;;11.80;99.90;;;;;;5049771;28;20029;-82
2021/09/24 03:10:16;;;;;;;7.15;3.83;;;11.90;99.90;;;;;;5066132;28;20124;-82
2021/09/24 03:12:42;;;;;;;10.65;3.80;;;11.90;99.90;;;;;;5057565;28;20039;-81
2021/09/24 03:15:09;;;;;;;6.63;3.90;;;11.80;99.90;;;;;;5051229;28;20057;-80
2021/09/24 03:17:35;;;;;;;7.30;4.28;;;11.80;99.90;;;;;;5050802;28;20075;-82
2021/09/24 03:20:02;;;;;;;7.55;4.55;;;11.80;99.90;;;;;;5052258;28;20018;-83
2021/09/24 03:22:27;;;;;;;8.32;3.72;;;11.80;99.90;;;;;;5051414;28;20077;-79
2021/09/24 03:24:54;;;;;;;6.25;3.65;;;11.70;99.90;;;;;;5052967;28;20029;-81
2021/09/24 03:27:20;;;;;;;6.32;4.13;;;11.70;99.90;;;;;;5052748;28;20136;-83
2021/09/24 03:29:46;;;;;;;8.30;4.30;;;11.70;99.90;;;;;;5049441;28;20029;-81
2021/09/24 03:32:12;;;;;;;6.32;3.90;;;11.60;99.90;;;;;;5064297;28;20470;-79
2021/09/24 03:34:37;;;;;;;6.70;4.10;;;11.60;99.90;;;;;;5054048;28;20030;-82
2021/09/24 03:37:03;;;;;;;6.75;3.95;;;11.50;99.90;;;;;;5068027;28;20034;-82
2021/09/24 03:39:29;;;;;;;10.40;4.60;;;11.50;99.90;;;;;;5051528;28;20289;-80
2021/09/24 03:41:55;;;;;;;6.32;3.60;;;11.50;99.90;;;;;;5049249;28;20036;-83
2021/09/24 03:44:21;;;;;;;6.88;4.00;;;11.50;99.90;;;;;;5057480;28;20020;-83
2021/09/24 03:46:47;;;;;;;6.07;3.65;;;11.50;99.90;;;;;;5069704;28;20025;-82
2021/09/24 03:49:13;;;;;;;6.85;3.53;;;11.50;99.90;;;;;;5070694;28;20036;-80
2021/09/24 03:51:38;;;;;;;6.60;4.10;;;11.50;99.90;;;;;;5030854;28;20057;-81
2021/09/24 03:54:05;;;;;;;7.85;4.35;;;11.50;99.90;;;;;;5031492;28;20048;-79
2021/09/24 03:56:31;;;;;;;6.85;4.10;;;11.50;99.90;;;;;;5031895;28;20038;-82
2021/09/24 03:58:57;;;;;;;7.55;4.55;;;11.50;99.90;;;;;;5048814;28;20064;-82
2021/09/24 04:01:22;;;;;;;8.07;3.97;;;11.50;99.90;;;;;;5049867;28;20177;-82
2021/09/24 04:03:48;;;;;;;8.00;3.47;;;11.40;99.90;;;;;;5045642;28;20029;-81
2021/09/24 04:06:14;;;;;;;8.13;4.18;;;11.40;99.90;;;;;;5046061;28;20033;-80
2021/09/24 04:08:39;;;;;;;6.97;4.10;;;11.40;99.90;;;;;;5045294;28;20037;-80
2021/09/24 04:11:05;;;;;;;7.35;3.92;;;11.40;99.90;;;;;;5047303;28;20032;-82
2021/09/24 04:13:31;;;;;;;9.07;4.53;;;11.40;99.90;;;;;;5042291;28;20026;-82
2021/09/24 04:15:56;;;;;;;6.78;4.30;;;11.50;99.90;;;;;;5055518;28;20437;-81
2021/09/24 04:18:22;;;;;;;8.85;4.25;;;11.40;99.90;;;;;;5024029;28;20030;-83
2021/09/24 04:20:48;;;;;;;7.20;3.95;;;11.50;99.90;;;;;;5022227;28;20037;-82
2021/09/24 04:23:17;;;;;;;7.93;4.28;;;11.50;99.90;;;;;;5026597;28;20026;-80
2021/09/24 04:25:43;;;;;;;8.07;4.60;;;11.50;99.90;;;;;;5040743;28;20040;-81
2021/09/24 04:28:08;;;;;;;6.75;3.78;;;11.50;99.90;;;;;;5042921;28;20018;-82
2021/09/24 04:30:34;;;;;;;7.65;4.40;;;11.50;99.90;;;;;;5056569;28;20030;-81
2021/09/24 04:33:00;;;;;;;8.60;4.50;;;11.50;99.90;;;;;;5041419;28;20474;-82
2021/09/24 04:35:27;;;;;;;8.32;4.50;;;11.50;99.90;;;;;;5035435;28;20057;-81
2021/09/24 04:37:53;;;;;;;7.38;4.63;;;11.60;99.90;;;;;;5035541;28;20032;-82
2021/09/24 04:40:20;;;;;;;9.13;4.70;;;11.60;99.90;;;;;;5033393;28;20104;-81
2021/09/24 04:42:46;;;;;;;9.80;5.05;;;11.60;99.90;;;;;;5035044;28;20026;-83
2021/09/24 04:45:14;;;;;;;7.20;4.45;;;11.70;99.90;;;;;;5037938;28;20040;-81
2021/09/24 04:47:39;;;;;;;8.18;3.70;;;11.70;99.90;;;;;;5037112;28;20439;-81
2021/09/24 04:50:06;;;;;;;9.00;4.38;;;11.70;99.90;;;;;;5032362;28;20053;-81
2021/09/24 04:52:33;;;;;;;7.70;4.03;;;11.60;99.90;;;;;;5035145;28;20025;-82
2021/09/24 04:54:59;;;;;;;8.68;4.25;;;11.60;99.90;;;;;;5034958;28;20021;-82
2021/09/24 04:57:24;;;;;;;8.35;4.10;;;11.70;99.90;;;;;;5035841;28;20042;-82
2021/09/24 04:59:50;;;;;;;6.90;4.20;;;11.70;99.90;;;;;;5028594;28;20065;-83
2021/09/24 05:02:16;;;;;;;6.63;4.07;;;11.70;99.90;;;;;;5033341;28;20037;-82
2021/09/24 05:04:45;;;;;;;6.68;3.92;;;11.60;99.90;;;;;;5029577;28;20040;-82
2021/09/24 05:07:11;;;;;;;6.50;4.05;;;11.60;99.90;;;;;;5030128;28;20585;-82
2021/09/24 05:09:37;;;;;;;6.45;3.90;;;11.60;99.90;;;;;;5033313;28;20049;-85
2021/09/24 05:12:03;;;;;;;7.13;4.45;;;11.60;99.90;;;;;;5039357;28;20035;-85
2021/09/24 05:14:29;;;;;;;7.90;4.15;;;11.60;99.90;;;;;;5040957;28;20030;-85
2021/09/24 05:16:56;;;;;;;7.25;4.38;;;11.60;99.90;;;;;;5039923;28;20540;-85
2021/09/24 05:19:21;;;;;;;7.05;4.40;;;11.60;99.90;;;;;;5041457;28;20097;-80
2021/09/24 05:21:48;;;;;;;10.13;4.45;;;11.60;99.90;;;;;;5053099;28;20018;-81
2021/09/24 05:24:14;;;;;;;7.53;4.60;;;11.60;99.90;;;;;;5042022;28;20181;-81
2021/09/24 05:26:39;;;;;;;7.30;4.18;;;11.60;99.90;;;;;;5043181;28;20177;-81
2021/09/24 05:29:06;;;;;;;7.28;4.43;;;11.70;99.90;;;;;;5042353;28;20040;-81
2021/09/24 05:31:33;;;;;;;8.27;4.60;;;11.70;99.90;;;;;;5043550;28;20160;-82
2021/09/24 05:34:01;;;;;;;6.63;4.20;;;11.70;99.90;;;;;;5036305;28;20037;-81
2021/09/24 05:36:27;;;;;;;7.63;4.43;;;11.70;99.90;;;;;;5038059;28;20029;-81
2021/09/24 05:38:52;;;;;;;7.15;4.35;;;11.80;99.90;;;;;;5035130;28;20061;-81
2021/09/24 05:41:18;;;;;;;7.00;4.07;;;11.80;99.90;;;;;;5052858;28;20026;-81
2021/09/24 05:43:44;;;;;;;7.55;4.03;;;11.80;99.90;;;;;;5058031;28;20028;-81
2021/09/24 05:46:10;;;;;;;7.53;4.75;;;11.80;99.90;;;;;;5076177;28;20440;-81
2021/09/24 05:48:36;;;;;;;6.60;4.35;;;11.80;99.90;;;;;;5057497;28;20504;-81
2021/09/24 05:51:02;;;;;;;9.30;3.75;;;11.80;99.90;;;;;;5037861;28;20018;-81
2021/09/24 05:53:28;;;;;;;7.38;4.72;;;11.90;99.90;;;;;;5039096;28;20133;-81
2021/09/24 05:55:55;;;;;;;8.02;4.82;;;11.90;99.90;;;;;;5039245;28;20095;-81
2021/09/24 05:58:21;;;;;;;7.30;4.85;;;12.00;99.90;;;;;;5039990;28;20085;-80
2021/09/24 06:00:47;;;;;;;9.80;4.55;;;12.00;99.90;;;;;;5037747;28;20392;-80
2021/09/24 06:03:13;;;;;;;8.15;4.90;;;12.00;99.90;;;;;;5034679;28;20479;-81
2021/09/24 06:05:39;;;;;;;6.90;4.05;;;12.10;99.90;;;;;;5053267;28;20040;-80
2021/09/24 06:08:05;;;;;;;9.20;3.97;;;12.20;99.90;;;;;;5037615;28;20025;-81
2021/09/24 06:10:31;;;;;;;7.28;4.47;;;12.20;99.90;;;;;;5029623;28;20493;-81
2021/09/24 06:12:57;;;;;;;7.18;3.90;;;12.20;99.90;;;;;;5045549;28;20032;-81
2021/09/24 06:15:24;;;;;;;12.48;5.25;;;12.20;99.90;;;;;;5058087;28;20021;-81
2021/09/24 06:17:50;;;;;;;7.95;4.70;;;12.30;99.90;;;;;;5042501;28;20036;-81
2021/09/24 06:20:17;;;;;;;9.02;5.10;;;12.40;99.90;;;;;;5031816;28;20042;-80
2021/09/24 06:22:44;;;;;;;8.38;4.60;;;12.40;99.90;;;;;;5038726;28;20047;-80
2021/09/24 06:25:10;;;;;;;9.68;4.93;;;12.50;99.90;;;;;;5050531;28;20092;-81
2021/09/24 06:27:36;;;;;;;8.45;4.70;;;12.60;99.90;;;;;;5018166;28;20033;-81
2021/09/24 06:30:04;;;;;;;10.13;5.07;;;12.70;99.90;;;;;;5029190;28;20025;-81
2021/09/24 06:32:29;;;;;;;7.43;4.55;;;12.80;99.90;;;;;;5038942;28;20056;-81
2021/09/24 06:34:55;;;;;;;9.65;4.55;;;12.90;99.90;;;;;;5038234;28;20474;-81
2021/09/24 06:37:21;;;;;;;8.23;4.40;;;13.00;99.90;;;;;;5034022;28;20366;-81
2021/09/24 06:39:47;;;;;;;6.45;3.95;;;13.10;99.90;;;;;;5041088;28;20509;-81
2021/09/24 06:42:13;;;;;;;7.43;4.60;;;13.30;99.90;;;;;;5038683;28;20529;-81
2021/09/24 06:44:39;;;;;;;10.07;4.35;;;13.30;99.90;;;;;;5049699;28;20009;-85
2021/09/24 06:47:06;;;;;;;7.40;4.28;;;13.50;99.90;;;;;;5053627;28;20025;-84
2021/09/24 06:49:32;;;;;;;7.43;4.45;;;13.60;99.90;;;;;;5066870;28;20029;-84
2021/09/24 06:51:58;;;;;;;7.28;4.18;;;13.70;99.90;;;;;;5046309;28;20029;-85
2021/09/24 06:54:24;;;;;;;9.45;4.90;;;13.80;99.90;;;;;;5032242;28;20021;-85
2021/09/24 06:56:50;;;;;;;6.40;4.10;;;13.80;99.90;;;;;;5041348;28;20034;-84
2021/09/24 06:59:16;;;;;;;10.13;4.95;;;14.00;99.90;;;;;;5027778;28;20036;-85
2021/09/24 07:01:43;;;;;;;7.97;4.50;;;14.10;99.90;;;;;;5029401;28;20026;-85
2021/09/24 07:04:08;;;;;;;8.07;3.95;;;14.10;99.90;;;;;;5029170;28;20044;-85
2021/09/24 07:06:34;;;;;;;6.40;4.15;;;14.20;99.90;;;;;;5053486;28;20648;-83
2021/09/24 07:09:00;;;;;;;7.88;4.25;;;14.30;99.90;;;;;;5034944;28;20033;-84
2021/09/24 07:11:27;;;;;;;10.23;4.20;;;14.40;99.90;;;;;;5049711;28;20037;-85
2021/09/24 07:13:53;;;;;;;9.80;4.78;;;14.40;99.90;;;;;;5065612;28;20029;-84
2021/09/24 07:16:18;;;;;;;8.55;4.03;;;14.50;99.90;;;;;;5052986;28;20036;-85
2021/09/24 07:18:44;;;;;;;7.78;4.13;;;14.70;99.90;;;;;;5032759;28;20076;-85
2021/09/24 07:21:10;;;;;;;7.43;4.10;;;14.70;99.90;;;;;;5031761;28;20095;-85
2021/09/24 07:23:37;;;;;;;9.30;4.32;;;14.80;99.90;;;;;;5035559;28;20029;-84
2021/09/24 07:26:02;;;;;;;8.90;4.55;;;14.80;99.90;;;;;;5051456;28;20032;-85
2021/09/24 07:28:28;;;;;;;6.03;3.90;;;14.90;99.90;;;;;;5033909;28;20034;-85
2021/09/24 07:31:03;;;;;;;8.48;4.35;;;14.90;99.90;;;;;;5040322;28;20033;-85
2021/09/24 07:33:28;;;;;;;7.47;4.22;;;15.00;99.90;;;;;;5034198;28;20168;-85
2021/09/24 07:35:54;;;;;;;9.98;4.30;;;15.10;99.90;;;;;;5048066;28;20482;-83
2021/09/24 07:38:21;;;;;;;7.20;4.32;;;15.10;99.90;;;;;;5042460;28;20024;-84
2021/09/24 07:40:48;;;;;;;7.28;4.10;;;15.20;99.90;;;;;;5049953;28;20025;-83
2021/09/24 07:43:14;;;;;;;7.20;4.10;;;15.20;99.90;;;;;;5054042;28;20029;-83
2021/09/24 07:45:41;;;;;;;7.05;4.18;;;15.20;99.90;;;;;;5067660;28;20233;-82
2021/09/24 07:48:07;;;;;;;7.07;4.10;;;15.40;99.90;;;;;;5053091;28;20030;-84
2021/09/24 07:50:33;;;;;;;6.75;3.80;;;15.40;99.90;;;;;;5047854;28;20132;-84
2021/09/24 07:52:58;;;;;;;7.15;3.88;;;15.60;99.90;;;;;;5032732;28;20045;-86
2021/09/24 07:55:24;;;;;;;8.70;4.32;;;15.70;99.90;;;;;;5055984;22;20015;-84
2021/09/24 07:57:55;;;;;;;7.80;4.38;;;15.90;99.90;;;;;;5069753;28;20025;-84
2021/09/24 08:00:27;;;;;;;7.18;4.20;;;16.00;99.90;;;;;;5054341;28;20037;-85
2021/09/24 08:02:54;;;;;;;7.60;4.30;;;16.00;99.90;;;;;;5076647;28;20018;-86
2021/09/24 08:05:20;;;;;;;6.82;4.25;;;16.10;99.90;;;;;;5069455;28;20128;-85
2021/09/24 08:07:47;;;;;;;7.15;4.43;;;16.10;99.90;;;;;;5057735;28;20033;-85
2021/09/24 08:10:13;;;;;;;7.63;5.05;;;16.20;99.90;;;;;;5068249;28;20081;-85
2021/09/24 08:12:39;;;;;;;6.07;3.97;;;16.30;99.90;;;;;;5053861;28;20076;-85
2021/09/24 08:15:07;;;;;;;6.85;3.88;;;16.40;99.90;;;;;;5070798;28;21439;-85
2021/09/24 08:17:36;;;;;;;8.70;4.32;;;16.50;99.90;;;;;;5052779;28;20029;-85
2021/09/24 08:20:03;;;;;;;6.70;3.97;;;16.50;99.90;;;;;;5082096;28;20040;-85
2021/09/24 08:22:32;;;;;;;6.68;4.00;;;16.60;99.90;;;;;;5061183;28;20083;-85
2021/09/24 08:24:58;;;;;;;9.75;3.15;;;16.80;99.90;;;;;;5041127;28;20032;-85
2021/09/24 08:27:23;;;;;;;7.53;4.28;;;16.80;99.90;;;;;;5068506;28;20037;-85
2021/09/24 08:29:52;;;;;;;6.13;4.13;;;16.90;99.90;;;;;;5069765;28;20053;-84
2021/09/24 08:32:18;;;;;;;6.38;3.13;;;16.90;99.90;;;;;;5050106;28;20037;-86
2021/09/24 08:34:44;;;;;;;8.38;4.30;;;17.00;99.90;;;;;;5056794;28;20029;-85
2021/09/24 08:37:09;;;;;;;8.30;3.60;;;17.00;99.90;;;;;;5061647;28;20032;-85
2021/09/24 08:39:36;;;;;;;7.00;3.90;;;17.20;99.90;;;;;;5046388;28;20033;-85
2021/09/24 08:42:02;;;;;;;6.07;3.45;;;17.30;99.90;;;;;;5068526;28;20032;-87
2021/09/24 08:44:27;;;;;;;6.22;3.65;;;17.40;99.90;;;;;;5042738;28;20521;-87
2021/09/24 08:46:53;;;;;;;8.15;3.83;;;17.50;99.90;;;;;;5068680;28;20043;-87
2021/09/24 08:49:20;;;;;;;6.68;3.70;;;17.60;99.90;;;;;;5066839;28;20033;-87
2021/09/24 08:51:46;;;;;;;7.63;4.30;;;17.60;99.90;;;;;;5052893;28;20044;-87
2021/09/24 08:54:12;;;;;;;6.68;3.80;;;17.60;99.90;;;;;;5071507;28;20025;-87
2021/09/24 08:56:38;;;;;;;8.80;3.45;;;17.90;99.90;;;;;;5053454;28;20032;-86
2021/09/24 08:59:03;;;;;;;6.10;3.80;;;18.10;99.90;;;;;;5047786;28;20519;-87
2021/09/24 09:01:30;;;;;;;7.03;3.90;;;18.20;99.90;;;;;;5070737;28;20031;-86
2021/09/24 09:03:57;;;;;;;5.45;3.30;;;18.40;99.90;;;;;;5050638;28;20703;-87
2021/09/24 09:06:27;;;;;;;6.85;3.80;;;18.80;99.90;;;;;;5067973;28;20022;-86
2021/09/24 09:09:04;;;;;;;6.75;3.38;;;19.00;99.90;;;;;;5068317;28;20021;-87
2021/09/24 09:11:30;;;;;;;6.00;3.75;;;19.00;99.90;;;;;;5051361;28;20045;-86
2021/09/24 09:13:59;;;;;;;5.80;3.85;;;19.10;99.90;;;;;;5053956;28;20060;-86
2021/09/24 09:16:28;;;;;;;8.48;3.50;;;18.80;99.90;;;;;;5069242;28;20080;-86
2021/09/24 09:19:13;;;;;;;6.15;3.38;;;18.70;99.90;;;;;;5069540;28;20017;-86
2021/09/24 09:21:42;;;;;;;5.85;3.08;;;18.60;99.90;;;;;;5069539;28;20021;-86
2021/09/24 09:24:22;;;;;;;6.35;3.00;;;18.40;99.90;;;;;;5069716;28;20056;-84
2021/09/24 09:26:48;;;;;;;5.97;3.47;;;18.30;99.90;;;;;;5068001;28;20033;-86
2021/09/24 09:29:14;;;;;;;7.10;3.38;;;18.10;99.90;;;;;;5064027;28;20504;-86
2021/09/24 09:31:40;;;;;;;7.60;3.17;;;17.90;99.90;;;;;;5066526;28;20058;-86
2021/09/24 09:34:29;;;;;;;7.30;3.08;;;18.00;99.90;;;;;;5042104;28;20119;-85
2021/09/24 09:36:56;;;;;;;6.00;3.17;;;18.10;99.90;;;;;;5048179;28;20634;-84
2021/09/24 09:39:22;;;;;;;8.52;3.45;;;18.50;99.90;;;;;;5042777;28;20029;-84
2021/09/24 09:41:56;;;;;;;7.03;3.40;;;18.80;99.90;;;;;;5066579;28;20033;-87
2021/09/24 09:44:32;;;;;;;5.22;2.88;;;19.10;99.90;;;;;;5043177;28;20028;-84
2021/09/24 09:46:58;;;;;;;6.78;3.13;;;19.50;99.90;;;;;;5057777;28;20033;-84
2021/09/24 09:49:26;;;;;;;6.90;2.83;;;19.80;99.90;;;;;;5057803;28;20021;-84
2021/09/24 09:52:14;;;;;;;5.57;2.72;;;20.10;99.90;;;;;;5065399;28;20084;-85
2021/09/24 09:54:40;;;;;;;5.55;2.38;;;20.30;99.90;;;;;;5060687;28;20552;-83
2021/09/24 09:57:18;;;;;;;5.63;2.90;;;20.50;99.90;;;;;;5044105;28;20044;-84
2021/09/24 09:59:52;;;;;;;5.05;1.90;;;20.30;99.90;;;;;;5042750;28;20857;-84
2021/09/24 10:02:19;;;;;;;4.88;2.20;;;20.50;99.90;;;;;;5065813;28;20021;-82
2021/09/24 10:04:51;;;;;;;4.95;2.70;;;20.80;99.90;;;;;;5044012;28;20033;-82
2021/09/24 10:07:24;;;;;;;5.07;2.70;;;21.00;99.90;;;;;;5044949;28;20033;-82
2021/09/24 10:10:13;;;;;;;5.07;2.50;;;21.00;99.90;;;;;;5038684;28;20043;-81
2021/09/24 10:12:40;;;;;;;5.35;2.20;;;21.10;99.90;;;;;;5054368;28;20032;-81
2021/09/24 10:15:08;;;;;;;5.38;2.60;;;21.30;99.90;;;;;;5035491;28;20029;-82
2021/09/24 10:17:34;;;;;;;5.32;2.30;;;21.40;99.90;;;;;;5044957;28;20029;-83
2021/09/24 10:20:03;;;;;;;6.72;3.67;;;21.60;99.90;;;;;;5056292;28;20029;-82
2021/09/24 10:22:29;;;;;;;4.47;2.58;;;21.60;99.90;;;;;;5043740;28;20070;-82
2021/09/24 10:24:56;;;;;;;6.35;2.60;;;21.40;99.90;;;;;;5043507;28;20108;-83
2021/09/24 10:27:27;;;;;;;4.10;2.10;;;21.30;99.90;;;;;;5045899;28;20067;-83
2021/09/24 10:29:54;;;;;;;5.63;2.55;;;21.40;99.90;;;;;;5040712;28;20037;-83
2021/09/24 10:32:26;;;;;;;8.73;2.30;;;21.50;99.90;;;;;;5042980;28;20116;-84
2021/09/24 10:34:58;;;;;;;5.60;2.00;;;21.70;99.90;;;;;;5043374;28;20037;-83
2021/09/24 10:37:25;;;;;;;4.40;2.10;;;21.40;99.90;;;;;;5063621;28;20382;-83
2021/09/24 10:39:58;;;;;;;4.38;2.20;;;21.40;99.90;;;;;;5061839;28;20095;-83
2021/09/24 10:42:42;;;;;;;4.10;2.03;;;21.40;99.90;;;;;;5047168;28;20040;-83
2021/09/24 10:45:38;;;;;;;4.53;2.13;;;21.50;99.90;;;;;;5044657;28;20049;-85
2021/09/24 10:48:19;;;;;;;4.18;1.88;;;21.40;99.90;;;;;;5043740;28;20025;-83
2021/09/24 10:50:51;;;;;;;5.03;2.60;;;21.70;99.90;;;;;;5058845;28;20033;-84
2021/09/24 10:53:27;;;;;;;4.90;2.30;;;21.30;99.90;;;;;;5065020;28;20079;-84
2021/09/24 10:55:52;;;;;;;6.18;2.20;;;21.40;99.90;;;;;;5046713;28;20398;-84
2021/09/24 10:58:27;;;;;;;4.15;2.10;;;21.10;99.90;;;;;;5067870;28;20104;-84
2021/09/24 11:01:05;;;;;;;4.10;2.25;;;21.00;99.90;;;;;;5067196;28;20025;-84
2021/09/24 11:03:32;;;;;;;6.65;2.10;;;20.80;99.90;;;;;;5046205;28;20025;-84
2021/09/24 11:06:03;;;;;;;5.45;2.10;;;21.10;99.90;;;;;;5053636;28;20093;-84
2021/09/24 11:08:29;;;;;;;;;;;21.40;99.90;;;;;;5068654;28;20040;-84
2021/09/24 11:11:29;;;;;;;5.35;2.05;;;21.70;99.90;;;;;;5064016;28;19909;-87
2021/09/24 11:13:59;;;;;;;5.03;2.28;;;22.00;99.80;;;;;;5039002;28;20029;-86
2021/09/24 11:16:48;;;;;;;3.40;1.90;;;22.10;99.30;;;;;;5067727;28;20031;-85
2021/09/24 11:19:41;;;;;;;4.18;2.40;;;22.30;99.30;;;;;;5066014;28;20695;-86
2021/09/24 11:22:18;;;;;;;4.30;2.15;;;22.10;99.20;;;;;;5063618;28;20025;-86
2021/09/24 11:25:04;;;;;;;4.85;2.00;;;22.00;99.20;;;;;;5051433;28;20048;-86
2021/09/24 11:27:38;;;;;;;4.80;2.17;;;21.80;99.40;;;;;;5066089;28;20118;-86
2021/09/24 11:30:04;;;;;;;5.25;2.33;;;22.00;99.50;;;;;;5048565;28;20020;-86
2021/09/24 11:32:42;;;;;;;4.90;2.65;;;21.90;98.80;;;;;;5062003;28;20039;-86
2021/09/24 11:35:14;;;;;;;5.50;2.10;;;22.00;98.70;;;;;;5049938;28;20125;-86
2021/09/24 11:37:41;;;;;;;4.28;2.25;;;22.20;98.20;;;;;;5048038;28;20074;-86
2021/09/24 11:40:11;;;;;;;4.13;2.20;;;22.10;98.10;;;;;;5048765;28;20025;-86
2021/09/24 11:42:40;;;;;;;4.00;2.00;;;22.10;98.50;;;;;;5063091;28;20033;-87
2021/09/24 11:45:10;;;;;;;4.45;2.10;;;22.20;99.00;;;;;;5067014;28;20048;-87
2021/09/24 11:47:43;;;;;;;3.92;2.17;;;22.30;98.10;;;;;;5064712;28;20021;-86
2021/09/24 11:50:17;;;;;;;8.30;2.35;;;22.40;98.30;;;;;;5038256;28;20029;-86
2021/09/24 11:52:49;;;;;;;3.65;1.83;;;22.20;97.40;;;;;;5063427;28;20020;-84
2021/09/24 11:55:37;;;;;;;5.75;2.30;;;22.20;97.30;;;;;;5038835;28;20044;-85
2021/09/24 11:58:14;;;;;;;3.25;1.83;;;22.40;97.80;;;;;;5063681;28;20375;-83
2021/09/24 12:00:53;;;;;;;4.00;1.88;;;22.70;97.60;;;;;;5065026;28;20104;-83
2021/09/24 12:03:22;;;;;;;5.32;2.10;;;22.60;97.40;;;;;;5060885;28;20032;-83
2021/09/24 12:05:54;;;;;;;3.60;2.00;;;22.70;96.90;;;;;;5046434;28;20025;-83
2021/09/24 12:08:25;;;;;;;4.18;1.90;;;22.90;96.50;;;;;;5063156;28;20051;-83
2021/09/24 12:10:58;;;;;;;;;;;23.00;97.00;;;;;;5060768;28;20100;-84
2021/09/24 12:13:53;;;;;;;4.15;1.80;;;23.20;96.40;;;;;;5061211;28;19908;-82
2021/09/24 12:16:22;;;;;;;5.18;1.85;;;23.30;96.20;;;;;;5042584;28;20029;-83
2021/09/24 12:18:58;;;;;;;5.82;1.80;;;23.40;95.70;;;;;;5064610;28;20021;-82
2021/09/24 12:21:28;;;;;;;4.55;2.10;;;23.50;95.80;;;;;;5047191;28;22313;-83
2021/09/24 12:23:54;;;;;;;3.67;1.83;;;23.40;95.00;;;;;;5043108;28;20466;-84
2021/09/24 12:26:30;;;;;;;3.47;2.00;;;23.20;95.60;;;;;;5066153;28;20035;-82
2021/09/24 12:29:00;;;;;;;3.67;2.05;;;23.10;95.10;;;;;;5068461;28;20025;-82
2021/09/24 12:31:37;;;;;;;3.28;2.00;;;22.90;94.60;;;;;;5048900;28;20033;-82
2021/09/24 12:34:06;;;;;;;3.47;1.98;;;22.70;95.20;;;;;;5066172;28;20032;-81
2021/09/24 12:36:32;;;;;;;3.28;1.88;;;22.60;95.10;;;;;;5059394;28;20032;-81
2021/09/24 12:39:15;;;;;;;3.53;1.50;;;22.80;95.50;;;;;;5062974;28;20017;-82
2021/09/24 12:41:45;;;;;;;4.05;2.30;;;23.10;94.30;;;;;;5060302;28;20036;-81
2021/09/24 12:44:11;;;;;;;3.75;2.00;;;23.20;94.40;;;;;;5045929;28;20054;-83
2021/09/24 12:46:45;;;;;;;4.28;2.28;;;23.30;94.30;;;;;;5047170;28;20021;-83
2021/09/24 12:49:12;;;;;;;5.28;2.88;;;23.20;94.30;;;;;;5065333;28;20554;-82
2021/09/24 12:51:42;;;;;;;4.35;2.00;;;23.30;94.10;;;;;;5059555;28;20720;-82